createdAt,value
2022-10-25T00:03:19.643Z,101448.66
2022-10-25T00:08:12.723Z,101414.78
2022-10-25T00:13:07.752Z,101453.44
2022-10-25T00:18:01.409Z,101421.06
2022-10-25T00:22:54.648Z,101421.47
2022-10-25T00:27:47.788Z,101448.16
2022-10-25T00:32:42.434Z,101436.91
2022-10-25T00:37:36.801Z,101411.56
2022-10-25T00:42:30.016Z,101406.34
2022-10-25T00:47:42.132Z,101431.78
2022-10-25T00:52:40.317Z,101423.69
2022-10-25T00:57:38.959Z,101430.06
2022-10-25T01:02:32.466Z,101361.28
2022-10-25T01:07:25.876Z,101398.00
2022-10-25T01:12:20.550Z,101260.72
2022-10-25T01:17:20.679Z,101384.59
2022-10-25T01:22:19.280Z,101399.03
2022-10-25T01:27:31.289Z,101370.22
2022-10-25T01:32:33.965Z,101390.91
2022-10-25T01:37:32.125Z,101343.19
2022-10-25T01:42:33.785Z,101370.00
2022-10-25T01:47:35.580Z,101358.47
2022-10-25T01:52:28.875Z,101332.31
2022-10-25T01:57:35.972Z,101365.72
2022-10-25T02:02:35.184Z,101365.84
2022-10-25T02:07:36.911Z,101349.47
2022-10-25T02:12:37.744Z,101377.41
2022-10-25T02:17:35.286Z,101309.56
2022-10-25T02:22:33.682Z,101315.50
2022-10-25T02:27:27.983Z,101368.09
2022-10-25T02:32:21.252Z,101341.38
2022-10-25T02:37:15.814Z,101315.78
2022-10-25T02:42:08.916Z,101365.94
2022-10-25T02:47:02.013Z,101290.16
2022-10-25T02:51:55.278Z,101352.63
2022-10-25T02:56:52.612Z,101260.19
2022-10-25T03:01:46.150Z,101366.69
2022-10-25T03:06:39.688Z,101339.22
2022-10-25T03:11:32.833Z,101169.97
2022-10-25T03:16:27.589Z,101360.50
2022-10-25T03:21:20.862Z,101292.09
2022-10-25T03:26:14.040Z,101263.44
2022-10-25T03:31:12.759Z,101236.06
2022-10-25T03:36:07.876Z,101348.91
2022-10-25T03:41:01.099Z,101348.34
2022-10-25T03:45:54.251Z,101353.06
2022-10-25T03:50:47.390Z,101281.81
2022-10-25T03:55:42.049Z,101327.25
2022-10-25T04:00:35.292Z,101339.72
2022-10-25T04:05:29.023Z,101331.91
2022-10-25T04:10:23.278Z,101340.28
2022-10-25T04:15:19.955Z,101312.53
2022-10-25T04:20:16.086Z,101335.50
2022-10-25T04:25:10.160Z,101340.34
2022-10-25T04:30:03.542Z,101341.84
2022-10-25T04:34:58.834Z,101308.75
2022-10-25T04:39:52.091Z,101332.47
2022-10-25T04:44:45.433Z,101254.28
2022-10-25T04:49:38.617Z,101229.97
2022-10-25T04:54:33.148Z,101318.88
2022-10-25T04:59:26.434Z,101305.69
2022-10-25T05:04:19.691Z,101347.75
2022-10-25T05:09:12.941Z,101294.31
2022-10-25T05:14:07.581Z,101320.13
2022-10-25T05:19:01.338Z,101288.47
2022-10-25T05:23:58.897Z,101364.56
2022-10-25T05:28:57.085Z,101315.41
2022-10-25T05:33:52.828Z,101365.41
2022-10-25T05:38:46.594Z,101380.06
2022-10-25T05:43:41.858Z,101368.78
2022-10-25T05:48:36.731Z,101371.28
2022-10-25T05:53:31.189Z,101363.56
2022-10-25T05:58:24.298Z,101336.53
2022-10-25T06:03:17.586Z,101343.41
2022-10-25T06:08:10.889Z,101387.31
2022-10-25T06:13:05.376Z,101395.22
2022-10-25T06:17:58.520Z,101378.16
2022-10-25T06:22:51.592Z,101406.91
2022-10-25T06:27:44.725Z,101385.16
2022-10-25T06:32:39.351Z,101395.28
2022-10-25T06:37:35.171Z,101379.59
2022-10-25T06:42:28.419Z,101388.06
2022-10-25T06:47:21.562Z,101380.97
2022-10-25T06:52:16.242Z,101376.41
2022-10-25T06:57:09.615Z,101330.59
2022-10-25T07:02:03.906Z,101374.56
2022-10-25T07:06:57.118Z,101380.44
2022-10-25T07:11:51.818Z,101317.69
2022-10-25T07:16:44.976Z,101331.09
2022-10-25T07:21:38.279Z,101334.31
2022-10-25T07:26:33.710Z,101306.28
2022-10-25T07:31:30.805Z,101372.72
2022-10-25T07:36:24.529Z,101347.06
2022-10-25T07:41:17.807Z,101365.56
2022-10-25T07:46:11.347Z,101343.06
2022-10-25T07:51:07.472Z,101365.59
2022-10-25T07:56:00.666Z,101351.63
2022-10-25T08:00:53.775Z,101347.19
2022-10-25T08:05:48.957Z,101301.44
2022-10-25T08:10:44.961Z,101334.03
2022-10-25T08:15:38.192Z,101331.00
2022-10-25T08:21:00.191Z,101299.47
2022-10-25T08:25:46.017Z,101322.28
2022-10-25T08:30:39.260Z,101314.94
2022-10-25T08:35:35.794Z,101315.66
2022-10-25T08:40:36.732Z,101308.59
2022-10-25T08:45:38.452Z,101288.44
2022-10-25T08:50:38.981Z,101292.28
2022-10-25T08:55:41.675Z,101258.53
2022-10-25T09:00:49.944Z,101305.59
2022-10-25T09:05:50.109Z,101299.06
2022-10-25T09:10:51.739Z,101191.09
2022-10-25T09:15:56.122Z,101263.25
2022-10-25T09:20:51.903Z,101273.38
2022-10-25T09:25:54.291Z,101302.94
2022-10-25T09:30:51.797Z,101247.84
2022-10-25T09:35:48.581Z,101296.00
2022-10-25T09:40:48.296Z,101207.75
2022-10-25T09:45:48.076Z,101281.03
2022-10-25T09:50:48.997Z,101264.44
2022-10-25T09:55:49.266Z,101258.78
2022-10-25T10:00:42.923Z,101254.31
2022-10-25T10:05:37.831Z,101259.78
2022-10-25T10:10:36.177Z,101254.31
2022-10-25T10:15:35.602Z,101202.63
2022-10-25T10:20:30.283Z,101249.53
2022-10-25T10:25:27.780Z,101240.09
2022-10-25T10:30:26.146Z,101224.84
2022-10-25T10:35:28.854Z,101214.03
2022-10-25T10:40:25.611Z,101187.38
2022-10-25T10:45:20.917Z,101165.13
2022-10-25T10:50:28.820Z,101157.81
2022-10-25T10:55:29.975Z,101215.97
2022-10-25T11:00:24.443Z,101216.63
2022-10-25T11:05:27.831Z,101209.28
2022-10-25T11:10:29.841Z,101197.00
2022-10-25T11:15:23.173Z,101202.75
2022-10-25T11:20:29.022Z,101198.88
2022-10-25T11:25:33.237Z,101194.00
2022-10-25T11:30:32.925Z,101194.28
2022-10-25T11:35:43.894Z,101184.91
2022-10-25T11:40:42.066Z,101166.28
2022-10-25T11:45:43.245Z,101180.25
2022-10-25T11:50:44.401Z,101182.13
2022-10-25T11:55:43.149Z,101176.38
2022-10-25T12:00:48.385Z,101149.56
2022-10-25T12:05:52.719Z,101166.84
2022-10-25T12:10:51.175Z,101168.25
2022-10-25T12:15:47.335Z,101136.84
2022-10-25T12:20:42.032Z,101160.19
2022-10-25T12:25:41.401Z,101126.94
2022-10-25T12:30:35.613Z,101154.69
2022-10-25T12:35:32.237Z,101139.78
2022-10-25T12:40:26.499Z,101134.16
2022-10-25T12:45:43.277Z,101108.00
2022-10-25T12:50:49.041Z,101129.34
2022-10-25T12:55:57.796Z,101130.66
2022-10-25T13:01:07.005Z,101129.91
2022-10-25T13:06:29.976Z,101123.00
2022-10-25T13:11:34.142Z,101123.66
2022-10-25T13:16:33.010Z,101115.47
2022-10-25T13:21:59.389Z,101067.63
2022-10-25T13:27:21.314Z,101106.56
2022-10-25T13:32:25.824Z,101083.72
2022-10-25T13:37:45.723Z,101116.72
2022-10-25T13:42:39.746Z,101096.66
2022-10-25T13:47:38.887Z,101083.97
2022-10-25T13:52:34.851Z,101115.38
2022-10-25T13:57:50.820Z,101096.28
2022-10-25T14:03:23.588Z,101044.97
2022-10-25T14:08:24.677Z,101072.56
2022-10-25T14:13:25.787Z,101062.75
2022-10-25T14:18:23.980Z,101060.63
2022-10-25T14:23:22.569Z,101096.69
2022-10-25T14:28:25.437Z,101092.13
2022-10-25T14:33:26.256Z,101058.16
2022-10-25T14:38:21.935Z,101061.41
2022-10-25T14:43:23.970Z,101037.34
2022-10-25T14:48:17.348Z,101007.25
2022-10-25T14:53:29.608Z,101063.88
2022-10-25T14:58:24.929Z,101043.66
2022-10-25T15:03:18.608Z,101078.91
2022-10-25T15:08:21.254Z,101049.41
2022-10-25T15:13:17.270Z,101031.78
2022-10-25T15:18:35.953Z,101074.38
2022-10-25T15:23:33.129Z,100924.84
2022-10-25T15:28:48.581Z,101049.53
2022-10-25T15:33:42.365Z,100914.88
2022-10-25T15:39:06.274Z,100878.84
2022-10-25T15:43:54.777Z,101081.53
2022-10-25T15:48:50.224Z,100993.25
2022-10-25T15:53:47.678Z,101081.63
2022-10-25T15:58:41.101Z,100876.94
2022-10-25T16:03:34.479Z,100988.09
2022-10-25T16:08:28.035Z,100937.41
2022-10-25T16:13:31.078Z,101029.00
2022-10-25T16:18:27.358Z,100917.25
2022-10-25T16:23:23.982Z,101068.69
2022-10-25T16:28:17.312Z,101107.69
2022-10-25T16:33:17.725Z,101113.72
2022-10-25T16:38:11.912Z,100985.47
2022-10-25T16:43:08.181Z,100970.59
2022-10-25T16:48:04.872Z,101069.28
2022-10-25T16:53:07.935Z,101102.03
2022-10-25T16:58:04.498Z,101048.91
2022-10-25T17:02:57.943Z,101130.22
2022-10-25T17:07:51.858Z,100970.13
2022-10-25T17:12:49.034Z,100970.13
2022-10-25T17:17:43.379Z,101156.22
2022-10-25T17:22:36.878Z,101055.91
2022-10-25T17:27:30.076Z,101066.19
2022-10-25T17:32:26.281Z,101109.56
2022-10-25T17:37:19.695Z,101095.81
2022-10-25T17:42:12.981Z,101159.31
2022-10-25T17:47:19.521Z,101101.59
2022-10-25T17:52:14.129Z,101034.78
2022-10-25T17:57:07.569Z,101173.16
2022-10-25T18:02:03.863Z,101100.00
2022-10-25T18:06:59.541Z,100983.78
2022-10-25T18:11:57.019Z,101106.47
2022-10-25T18:16:57.970Z,101079.56
2022-10-25T18:21:52.551Z,101120.19
2022-10-25T18:26:49.187Z,101058.66
2022-10-25T18:31:53.030Z,101114.72
2022-10-25T18:36:48.705Z,100977.28
2022-10-25T18:41:42.863Z,101134.66
2022-10-25T18:46:38.596Z,101185.22
2022-10-25T18:52:12.431Z,101181.09
2022-10-25T18:57:17.981Z,101128.50
2022-10-25T19:02:17.676Z,100965.47
2022-10-25T19:07:18.073Z,101204.59
2022-10-25T19:12:21.997Z,101003.66
2022-10-25T19:17:21.516Z,101027.16
2022-10-25T19:22:19.797Z,101003.03
2022-10-25T19:27:16.114Z,101192.84
2022-10-25T19:32:09.818Z,101228.28
2022-10-25T19:37:10.286Z,101224.81
2022-10-25T19:42:20.283Z,101170.13
2022-10-25T19:47:13.957Z,101176.97
2022-10-25T19:52:36.802Z,101249.34
2022-10-25T19:57:34.286Z,101045.59
2022-10-25T20:02:30.935Z,101233.28
2022-10-25T20:07:28.944Z,101177.88
2022-10-25T20:12:34.932Z,101069.97
2022-10-25T20:17:30.208Z,101253.78
2022-10-25T20:22:27.651Z,101251.06
2022-10-25T20:27:27.183Z,101155.69
2022-10-25T20:32:28.000Z,101008.91
2022-10-25T20:37:23.219Z,101272.84
2022-10-25T20:42:24.656Z,101098.47
2022-10-25T20:48:18.485Z,101072.72
2022-10-25T20:53:17.691Z,101138.56
2022-10-25T20:58:11.071Z,101118.69
2022-10-25T21:03:04.484Z,101093.91
2022-10-25T21:07:57.955Z,101170.41
2022-10-25T21:12:52.638Z,101282.59
2022-10-25T21:17:50.859Z,101181.44
2022-10-25T21:22:55.744Z,101206.97
2022-10-25T21:27:49.709Z,101185.78
2022-10-25T21:32:47.585Z,101305.75
2022-10-25T21:37:44.275Z,101310.75
2022-10-25T21:42:40.415Z,101112.28
2022-10-25T21:47:33.871Z,101075.69
2022-10-25T21:52:33.274Z,101263.75
2022-10-25T21:57:26.866Z,101179.66
2022-10-25T22:02:20.601Z,101111.56
2022-10-25T22:07:19.184Z,101261.13
2022-10-25T22:12:15.815Z,101259.84
2022-10-25T22:17:19.023Z,101178.50
2022-10-25T22:22:42.607Z,101344.25
2022-10-25T22:27:54.727Z,101230.38
2022-10-25T22:39:28.438Z,101130.22
2022-10-25T22:44:23.338Z,101201.66
2022-10-25T22:49:19.586Z,101266.25
2022-10-25T22:55:10.092Z,101373.19
2022-10-25T23:00:16.615Z,101300.66
2022-10-25T23:05:10.275Z,101284.94
2022-10-25T23:10:03.645Z,101380.09
2022-10-25T23:14:57.099Z,101324.63
2022-10-25T23:19:51.870Z,101170.38
2022-10-25T23:24:45.219Z,101404.94
2022-10-25T23:29:39.644Z,101343.06
2022-10-25T23:34:33.428Z,101182.16
2022-10-25T23:39:40.640Z,101421.53
2022-10-25T23:44:33.958Z,101359.91
2022-10-25T23:49:27.258Z,101449.38
2022-10-25T23:54:20.564Z,101253.84
2022-10-25T23:59:15.345Z,101384.88
